createdAt,value
2022-12-25T00:00:34.929Z,95.72
2022-12-25T00:03:01.501Z,96.06
2022-12-25T00:05:27.923Z,95.76
2022-12-25T00:07:54.349Z,95.94
2022-12-25T00:10:21.092Z,95.74
2022-12-25T00:12:47.525Z,95.93
2022-12-25T00:15:14.334Z,96.46
2022-12-25T00:17:40.821Z,96.09
2022-12-25T00:20:08.142Z,96.40
2022-12-25T00:22:35.223Z,96.28
2022-12-25T00:25:01.723Z,96.34
2022-12-25T00:27:31.852Z,96.67
2022-12-25T00:29:58.280Z,96.74
2022-12-25T00:32:24.589Z,96.94
2022-12-25T00:34:50.919Z,97.41
2022-12-25T00:37:17.339Z,97.14
2022-12-25T00:39:43.641Z,97.29
2022-12-25T00:42:11.038Z,97.10
2022-12-25T00:44:37.717Z,96.75
2022-12-25T00:47:04.536Z,97.06
2022-12-25T00:49:30.899Z,97.04
2022-12-25T00:51:57.335Z,97.51
2022-12-25T00:54:23.693Z,97.47
2022-12-25T00:56:50.039Z,97.49
2022-12-25T00:59:16.631Z,96.96
2022-12-25T01:01:43.357Z,97.43
2022-12-25T01:04:11.853Z,97.20
2022-12-25T01:06:38.613Z,97.48
2022-12-25T01:09:05.068Z,97.39
2022-12-25T01:11:32.292Z,97.02
2022-12-25T01:13:58.769Z,97.27
2022-12-25T01:16:25.516Z,96.57
2022-12-25T01:18:52.140Z,96.31
2022-12-25T01:21:19.527Z,96.78
2022-12-25T01:23:45.923Z,97.01
2022-12-25T01:26:13.546Z,96.76
2022-12-25T01:28:40.711Z,96.75
2022-12-25T01:31:10.686Z,96.09
2022-12-25T01:33:38.402Z,95.75
2022-12-25T01:36:12.633Z,95.76
2022-12-25T01:38:39.056Z,95.78
2022-12-25T01:41:05.349Z,95.67
2022-12-25T01:43:33.781Z,96.19
2022-12-25T01:46:00.352Z,95.93
2022-12-25T01:48:36.870Z,95.92
2022-12-25T01:51:20.636Z,95.82
2022-12-25T01:53:47.147Z,95.89
2022-12-25T01:56:13.514Z,96.05
2022-12-25T01:58:39.982Z,95.96
2022-12-25T02:01:06.867Z,95.35
2022-12-25T02:03:33.494Z,95.36
2022-12-25T02:06:00.622Z,95.44
2022-12-25T02:08:27.171Z,94.99
2022-12-25T02:10:53.981Z,95.12
2022-12-25T02:13:20.858Z,94.82
2022-12-25T02:16:09.290Z,94.94
2022-12-25T02:18:46.220Z,95.06
2022-12-25T02:21:43.712Z,95.02
2022-12-25T02:24:31.391Z,94.69
2022-12-25T02:27:15.826Z,94.82
2022-12-25T02:30:04.717Z,94.75
2022-12-25T02:32:39.386Z,94.85
2022-12-25T02:35:10.980Z,95.09
2022-12-25T02:37:44.143Z,95.37
2022-12-25T02:40:18.851Z,94.85
2022-12-25T02:43:04.611Z,95.02
2022-12-25T02:45:39.747Z,95.23
2022-12-25T02:48:07.220Z,95.29
2022-12-25T02:50:33.698Z,95.16
2022-12-25T02:53:03.279Z,95.46
2022-12-25T02:55:37.616Z,95.33
2022-12-25T02:58:17.793Z,95.59
2022-12-25T03:00:49.512Z,95.91
2022-12-25T03:03:17.958Z,95.84
2022-12-25T03:05:45.316Z,96.15
2022-12-25T03:08:16.227Z,96.16
2022-12-25T03:10:46.584Z,95.78
2022-12-25T03:13:19.609Z,95.87
2022-12-25T03:15:46.988Z,95.75
2022-12-25T03:18:18.759Z,95.48
2022-12-25T03:20:45.304Z,95.27
2022-12-25T03:23:13.993Z,95.00
2022-12-25T03:25:40.873Z,95.69
2022-12-25T03:28:07.228Z,95.37
2022-12-25T03:30:59.949Z,95.77
2022-12-25T03:33:54.130Z,95.69
2022-12-25T03:36:32.428Z,95.87
2022-12-25T03:39:27.697Z,95.74
2022-12-25T03:42:00.330Z,95.97
2022-12-25T03:44:43.761Z,95.77
2022-12-25T03:47:18.908Z,96.26
2022-12-25T03:50:17.713Z,96.09
2022-12-25T03:52:47.103Z,96.15
2022-12-25T03:55:15.752Z,96.32
2022-12-25T03:57:42.179Z,96.23
2022-12-25T04:00:09.157Z,96.74
2022-12-25T04:02:36.352Z,97.04
2022-12-25T04:05:03.229Z,96.64
2022-12-25T04:07:29.621Z,96.69
2022-12-25T04:09:56.005Z,97.06
2022-12-25T04:12:22.465Z,96.65
2022-12-25T04:14:48.880Z,96.72
2022-12-25T04:17:15.259Z,97.14
2022-12-25T04:19:41.652Z,96.86
2022-12-25T04:22:08.068Z,96.91
2022-12-25T04:24:34.432Z,97.05
2022-12-25T04:27:00.853Z,97.02
2022-12-25T04:29:27.081Z,96.71
2022-12-25T04:31:53.756Z,96.56
2022-12-25T04:34:20.066Z,96.69
2022-12-25T04:36:46.394Z,96.87
2022-12-25T04:39:12.831Z,96.99
2022-12-25T04:41:39.238Z,97.32
2022-12-25T04:44:05.595Z,97.21
2022-12-25T04:46:31.962Z,97.08
2022-12-25T04:48:58.478Z,96.94
2022-12-25T04:51:26.336Z,96.84
2022-12-25T04:53:53.837Z,96.64
2022-12-25T04:56:21.614Z,97.04
2022-12-25T04:58:48.126Z,96.67
2022-12-25T05:01:15.323Z,96.88
2022-12-25T05:03:42.388Z,96.96
2022-12-25T05:06:08.847Z,97.01
2022-12-25T05:08:36.130Z,96.68
2022-12-25T05:11:07.554Z,96.80
2022-12-25T05:13:34.148Z,96.68
2022-12-25T05:16:00.559Z,96.70
2022-12-25T05:18:27.003Z,96.59
2022-12-25T05:20:54.863Z,96.93
2022-12-25T05:23:22.135Z,96.64
2022-12-25T05:25:48.667Z,96.76
2022-12-25T05:28:15.039Z,96.79
2022-12-25T05:30:41.555Z,96.86
2022-12-25T05:33:08.300Z,96.94
2022-12-25T05:35:37.503Z,96.74
2022-12-25T05:38:04.471Z,96.76
2022-12-25T05:40:30.811Z,97.03
2022-12-25T05:42:57.269Z,96.96
2022-12-25T05:45:23.964Z,96.87
2022-12-25T05:47:50.656Z,96.93
2022-12-25T05:50:16.989Z,97.13
2022-12-25T05:52:43.414Z,97.39
2022-12-25T05:55:09.749Z,97.31
2022-12-25T05:57:36.266Z,97.25
2022-12-25T06:00:04.401Z,97.29
2022-12-25T06:02:31.000Z,97.27
2022-12-25T06:04:57.509Z,96.81
2022-12-25T06:07:23.895Z,96.96
2022-12-25T06:09:50.222Z,97.14
2022-12-25T06:12:16.657Z,97.64
2022-12-25T06:14:43.093Z,97.10
2022-12-25T06:17:09.521Z,97.31
2022-12-25T06:19:36.007Z,97.21
2022-12-25T06:22:02.456Z,97.32
2022-12-25T06:24:28.990Z,97.38
2022-12-25T06:26:55.352Z,97.43
2022-12-25T06:29:21.902Z,97.38
2022-12-25T06:31:48.584Z,97.79
2022-12-25T06:34:15.079Z,97.45
2022-12-25T06:36:41.476Z,96.88
2022-12-25T06:39:08.124Z,96.97
2022-12-25T06:41:34.498Z,96.96
2022-12-25T06:44:01.639Z,97.23
2022-12-25T06:46:29.599Z,97.31
2022-12-25T06:48:58.201Z,97.27
2022-12-25T06:51:29.140Z,97.30
2022-12-25T06:53:56.522Z,97.23
2022-12-25T06:56:27.888Z,96.97
2022-12-25T06:59:00.149Z,97.28
2022-12-25T07:01:42.022Z,97.17
2022-12-25T07:04:16.844Z,97.29
2022-12-25T07:06:43.231Z,97.18
2022-12-25T07:09:09.700Z,97.09
2022-12-25T07:11:36.185Z,97.06
2022-12-25T07:14:02.607Z,97.73
2022-12-25T07:16:28.973Z,97.56
2022-12-25T07:18:55.438Z,97.75
2022-12-25T07:21:21.803Z,97.64
2022-12-25T07:23:50.050Z,96.87
2022-12-25T07:26:16.950Z,96.96
2022-12-25T07:28:43.754Z,97.08
2022-12-25T07:31:14.051Z,97.32
2022-12-25T07:33:40.807Z,97.38
2022-12-25T07:36:07.809Z,97.54
2022-12-25T07:38:39.156Z,97.58
2022-12-25T07:41:08.833Z,97.70
2022-12-25T07:43:35.184Z,97.70
2022-12-25T07:46:01.775Z,97.61
2022-12-25T07:48:29.093Z,97.56
2022-12-25T07:51:00.579Z,97.69
2022-12-25T07:53:27.396Z,97.69
2022-12-25T07:56:01.616Z,97.76
2022-12-25T07:58:29.355Z,97.79
2022-12-25T08:01:01.416Z,97.64
2022-12-25T08:03:27.906Z,97.31
2022-12-25T08:05:54.376Z,97.34
2022-12-25T08:08:21.062Z,97.43
2022-12-25T08:10:48.007Z,97.30
2022-12-25T08:13:14.866Z,97.50
2022-12-25T08:15:41.945Z,97.38
2022-12-25T08:18:08.311Z,97.20
2022-12-25T08:20:35.063Z,96.43
2022-12-25T08:23:01.577Z,96.27
2022-12-25T08:25:28.303Z,97.03
2022-12-25T08:27:54.865Z,97.06
2022-12-25T08:30:21.248Z,97.04
2022-12-25T08:32:47.572Z,97.19
2022-12-25T08:35:13.876Z,96.75
2022-12-25T08:37:40.273Z,96.55
2022-12-25T08:40:07.027Z,96.81
2022-12-25T08:42:33.355Z,96.47
2022-12-25T08:45:00.011Z,96.37
2022-12-25T08:47:26.343Z,94.10
2022-12-25T08:49:52.660Z,92.26
2022-12-25T08:52:19.217Z,90.92
2022-12-25T08:54:46.663Z,88.71
2022-12-25T08:57:13.060Z,88.48
2022-12-25T08:59:39.747Z,89.49
2022-12-25T09:02:06.476Z,89.43
2022-12-25T09:04:33.043Z,89.92
2022-12-25T09:06:59.588Z,89.73
2022-12-25T09:09:27.766Z,89.18
2022-12-25T09:11:54.342Z,90.34
2022-12-25T09:14:21.633Z,88.75
2022-12-25T09:16:50.294Z,89.58
2022-12-25T09:19:16.866Z,89.50
2022-12-25T09:21:43.206Z,89.15
2022-12-25T09:24:09.559Z,86.08
2022-12-25T09:26:36.999Z,87.13
2022-12-25T09:29:03.408Z,88.83
2022-12-25T09:31:29.808Z,88.14
2022-12-25T09:33:58.148Z,86.69
2022-12-25T09:36:25.269Z,86.79
2022-12-25T09:38:52.347Z,87.91
2022-12-25T09:41:51.028Z,84.26
2022-12-25T09:44:22.833Z,85.42
2022-12-25T09:47:01.448Z,86.58
2022-12-25T09:49:41.972Z,86.37
2022-12-25T09:52:13.425Z,86.55
2022-12-25T09:54:53.977Z,87.35
2022-12-25T09:57:20.609Z,87.87
2022-12-25T09:59:47.058Z,86.42
2022-12-25T10:02:36.529Z,86.54
2022-12-25T10:05:34.566Z,86.02
2022-12-25T10:08:30.544Z,86.04
2022-12-25T10:11:27.872Z,83.45
2022-12-25T10:14:13.109Z,81.98
2022-12-25T10:17:00.312Z,82.74
2022-12-25T10:19:31.068Z,83.14
2022-12-25T10:22:02.448Z,83.31
2022-12-25T10:24:58.133Z,83.79
2022-12-25T10:27:34.851Z,83.48
2022-12-25T10:30:02.119Z,83.63
2022-12-25T10:32:28.467Z,84.65
2022-12-25T10:34:55.458Z,85.66
2022-12-25T10:37:21.832Z,85.49
2022-12-25T10:39:48.325Z,82.59
2022-12-25T10:42:28.642Z,82.18
2022-12-25T10:45:04.207Z,82.51
2022-12-25T10:47:36.870Z,83.12
2022-12-25T10:50:10.379Z,83.30
2022-12-25T10:52:54.980Z,83.80
2022-12-25T10:55:28.167Z,84.02
2022-12-25T10:57:55.439Z,83.31
2022-12-25T11:00:29.352Z,82.60
2022-12-25T11:02:56.380Z,82.89
2022-12-25T11:05:30.703Z,82.60
2022-12-25T11:07:59.554Z,82.02
2022-12-25T11:10:33.243Z,83.12
2022-12-25T11:13:01.294Z,82.63
2022-12-25T11:15:40.185Z,81.65
2022-12-25T11:18:24.775Z,81.42
2022-12-25T11:21:02.824Z,81.40
2022-12-25T11:23:32.420Z,82.13
2022-12-25T11:26:05.868Z,80.43
2022-12-25T11:28:35.120Z,80.24
2022-12-25T11:31:07.105Z,78.66
2022-12-25T11:33:41.139Z,80.11
2022-12-25T11:36:25.551Z,78.98
2022-12-25T11:38:52.183Z,78.16
2022-12-25T11:41:20.413Z,78.84
2022-12-25T11:43:55.620Z,79.80
2022-12-25T11:46:41.854Z,79.93
2022-12-25T11:49:18.695Z,77.99
2022-12-25T11:51:47.607Z,78.18
2022-12-25T11:54:24.588Z,79.11
2022-12-25T11:56:51.081Z,77.84
2022-12-25T11:59:27.680Z,76.18
2022-12-25T12:02:00.063Z,76.79
2022-12-25T12:04:43.103Z,78.31
2022-12-25T12:07:29.076Z,79.76
2022-12-25T12:10:14.273Z,80.84
2022-12-25T12:12:50.847Z,78.59
2022-12-25T12:15:40.949Z,79.80
2022-12-25T12:18:28.358Z,81.14
2022-12-25T12:20:59.077Z,81.15
2022-12-25T12:23:26.403Z,80.94
2022-12-25T12:25:53.475Z,80.61
2022-12-25T12:28:26.201Z,80.31
2022-12-25T12:31:07.014Z,80.65
2022-12-25T12:33:40.032Z,82.17
2022-12-25T12:36:11.371Z,83.00
2022-12-25T12:38:38.121Z,82.28
2022-12-25T12:41:07.119Z,82.57
2022-12-25T12:43:42.282Z,84.86
2022-12-25T12:46:17.179Z,84.10
2022-12-25T12:48:46.796Z,84.19
2022-12-25T12:51:35.658Z,84.90
2022-12-25T12:54:21.875Z,86.27
2022-12-25T12:56:58.723Z,87.44
2022-12-25T12:59:26.892Z,88.09
2022-12-25T13:02:09.214Z,86.56
2022-12-25T13:04:53.854Z,85.26
2022-12-25T13:07:45.024Z,86.15
2022-12-25T13:10:25.067Z,87.63
2022-12-25T13:12:55.155Z,86.91
2022-12-25T13:15:24.841Z,86.02
2022-12-25T13:17:51.364Z,85.53
2022-12-25T13:20:24.648Z,84.50
2022-12-25T13:22:53.140Z,85.79
2022-12-25T13:25:22.291Z,84.54
2022-12-25T13:27:56.466Z,85.52
2022-12-25T13:30:23.976Z,86.18
2022-12-25T13:32:50.513Z,86.78
2022-12-25T13:35:17.736Z,87.00
2022-12-25T13:37:44.717Z,86.65
2022-12-25T13:40:29.460Z,85.58
2022-12-25T13:43:01.764Z,86.07
2022-12-25T13:45:30.407Z,86.21
2022-12-25T13:47:57.451Z,86.34
2022-12-25T13:50:33.859Z,86.02
2022-12-25T13:53:16.336Z,86.36
2022-12-25T13:55:52.528Z,84.73
2022-12-25T13:58:26.020Z,84.03
2022-12-25T14:00:56.162Z,85.69
2022-12-25T14:03:32.372Z,85.31
2022-12-25T14:06:15.050Z,85.22
2022-12-25T14:08:42.170Z,83.27
2022-12-25T14:11:09.550Z,84.25
2022-12-25T14:13:40.529Z,85.37
2022-12-25T14:16:07.984Z,84.58
2022-12-25T14:18:34.819Z,84.32
2022-12-25T14:21:05.732Z,83.94
2022-12-25T14:23:52.650Z,83.49
2022-12-25T14:26:30.175Z,83.91
2022-12-25T14:29:16.506Z,84.06
2022-12-25T14:31:44.052Z,84.84
2022-12-25T14:34:16.158Z,85.07
2022-12-25T14:36:42.850Z,85.00
2022-12-25T14:39:27.262Z,85.40
2022-12-25T14:41:54.009Z,85.09
2022-12-25T14:44:39.263Z,83.77
2022-12-25T14:47:14.198Z,83.48
2022-12-25T14:49:40.813Z,83.70
2022-12-25T14:52:17.681Z,83.78
2022-12-25T14:54:49.761Z,81.43
2022-12-25T14:57:29.522Z,82.81
2022-12-25T15:00:02.112Z,82.28
2022-12-25T15:02:38.381Z,81.46
2022-12-25T15:05:05.552Z,82.33
2022-12-25T15:07:32.032Z,83.12
2022-12-25T15:10:27.108Z,83.33
2022-12-25T15:12:45.230Z,81.80
2022-12-25T15:15:11.717Z,82.62
2022-12-25T15:17:38.041Z,84.01
2022-12-25T15:20:04.935Z,82.65
2022-12-25T15:22:54.000Z,82.46
2022-12-25T15:25:19.261Z,83.00
2022-12-25T15:27:45.678Z,83.65
2022-12-25T15:30:12.491Z,83.79
2022-12-25T15:32:39.024Z,84.59
2022-12-25T15:35:07.261Z,84.18
2022-12-25T15:37:33.592Z,83.80
2022-12-25T15:39:59.995Z,84.02
2022-12-25T15:42:26.312Z,82.00
2022-12-25T15:44:52.955Z,83.08
2022-12-25T15:47:19.595Z,81.38
2022-12-25T15:49:46.158Z,82.06
2022-12-25T15:52:14.820Z,81.80
2022-12-25T15:54:41.270Z,82.99
2022-12-25T15:57:19.339Z,81.40
2022-12-25T15:59:45.925Z,82.21
2022-12-25T16:02:17.245Z,83.00
2022-12-25T16:04:44.035Z,81.74
2022-12-25T16:07:18.910Z,82.52
2022-12-25T16:09:45.640Z,82.46
2022-12-25T16:12:12.079Z,82.73
2022-12-25T16:14:38.504Z,83.27
2022-12-25T16:17:04.912Z,81.90
2022-12-25T16:19:31.762Z,80.77
2022-12-25T16:21:58.145Z,81.74
2022-12-25T16:24:24.480Z,80.02
2022-12-25T16:26:50.906Z,81.75
2022-12-25T16:29:17.257Z,83.72
2022-12-25T16:31:43.804Z,83.79
2022-12-25T16:34:10.336Z,84.12
2022-12-25T16:36:37.158Z,81.83
2022-12-25T16:39:04.998Z,83.25
2022-12-25T16:41:31.385Z,83.97
2022-12-25T16:43:57.762Z,83.97
2022-12-25T16:46:32.542Z,84.83
2022-12-25T16:48:58.896Z,85.04
2022-12-25T16:51:25.205Z,83.57
2022-12-25T16:53:51.648Z,83.58
2022-12-25T16:56:19.270Z,84.84
2022-12-25T16:58:46.639Z,85.20
2022-12-25T17:01:15.734Z,84.72
2022-12-25T17:03:42.705Z,84.86
2022-12-25T17:06:17.757Z,84.29
2022-12-25T17:08:44.194Z,84.68
2022-12-25T17:11:11.175Z,84.90
2022-12-25T17:13:48.083Z,85.60
2022-12-25T17:16:19.861Z,86.22
2022-12-25T17:18:46.623Z,85.49
2022-12-25T17:21:13.364Z,82.19
2022-12-25T17:23:40.064Z,81.64
2022-12-25T17:26:07.172Z,82.04
2022-12-25T17:28:34.611Z,84.30
2022-12-25T17:31:06.214Z,83.49
2022-12-25T17:33:36.196Z,84.58
2022-12-25T17:36:04.330Z,84.13
2022-12-25T17:38:31.813Z,83.28
2022-12-25T17:41:00.333Z,83.89
2022-12-25T17:43:26.895Z,84.32
2022-12-25T17:45:53.199Z,82.55
2022-12-25T17:48:19.770Z,82.37
2022-12-25T17:50:46.521Z,81.92
2022-12-25T17:53:13.166Z,82.98
2022-12-25T17:55:40.596Z,83.29
2022-12-25T17:58:08.659Z,83.37
2022-12-25T18:00:35.798Z,83.25
2022-12-25T18:03:10.612Z,81.11
2022-12-25T18:05:37.833Z,82.13
2022-12-25T18:08:04.374Z,82.41
2022-12-25T18:10:36.364Z,81.14
2022-12-25T18:13:03.597Z,80.81
2022-12-25T18:15:30.164Z,81.56
2022-12-25T18:17:56.528Z,82.07
2022-12-25T18:20:23.018Z,83.63
2022-12-25T18:22:49.380Z,81.95
2022-12-25T18:25:15.832Z,81.72
2022-12-25T18:27:42.270Z,81.99
2022-12-25T18:30:09.160Z,80.88
2022-12-25T18:32:35.558Z,82.05
2022-12-25T18:35:01.946Z,80.87
2022-12-25T18:37:29.531Z,80.21
2022-12-25T18:39:58.330Z,80.99
2022-12-25T18:42:24.753Z,81.06
2022-12-25T18:44:51.159Z,81.16
2022-12-25T18:47:17.918Z,81.65
2022-12-25T18:49:44.319Z,81.98
2022-12-25T18:52:47.575Z,80.28
2022-12-25T18:54:57.196Z,79.84
2022-12-25T18:57:23.634Z,80.20
2022-12-25T18:59:50.139Z,79.48
2022-12-25T19:02:17.220Z,80.33
2022-12-25T19:04:43.866Z,81.50
2022-12-25T19:07:11.190Z,81.98
2022-12-25T19:09:37.583Z,81.60
2022-12-25T19:12:04.263Z,81.99
2022-12-25T19:14:30.664Z,82.91
2022-12-25T19:17:14.096Z,82.90
2022-12-25T19:19:40.791Z,81.48
2022-12-25T19:22:07.937Z,82.07
2022-12-25T19:24:35.103Z,83.77
2022-12-25T19:27:01.782Z,82.59
2022-12-25T19:29:28.697Z,83.60
2022-12-25T19:31:55.394Z,82.87
2022-12-25T19:34:21.911Z,84.05
2022-12-25T19:36:48.323Z,83.26
2022-12-25T19:39:14.972Z,83.95
2022-12-25T19:41:41.721Z,84.96
2022-12-25T19:44:08.387Z,85.62
2022-12-25T19:46:37.286Z,86.06
2022-12-25T19:49:04.238Z,84.35
2022-12-25T19:51:33.292Z,84.06
2022-12-25T19:53:59.999Z,85.36
2022-12-25T19:56:27.791Z,84.82
2022-12-25T19:58:55.549Z,84.50
2022-12-25T20:01:23.549Z,84.12
2022-12-25T20:03:50.551Z,84.79
2022-12-25T20:06:23.345Z,85.79
2022-12-25T20:08:52.053Z,85.91
2022-12-25T20:11:19.190Z,86.63
2022-12-25T20:13:46.135Z,87.65
2022-12-25T20:16:13.213Z,87.40
2022-12-25T20:18:39.917Z,87.89
2022-12-25T20:21:13.187Z,88.46
2022-12-25T20:23:40.888Z,88.77
2022-12-25T20:26:07.323Z,89.23
2022-12-25T20:28:36.632Z,89.14
2022-12-25T20:31:16.833Z,85.73
2022-12-25T20:33:43.583Z,85.79
2022-12-25T20:36:10.583Z,86.66
2022-12-25T20:38:36.988Z,87.09
2022-12-25T20:41:29.833Z,87.82
2022-12-25T20:43:57.276Z,86.24
2022-12-25T20:46:24.609Z,85.74
2022-12-25T20:48:51.080Z,85.65
2022-12-25T20:51:20.258Z,85.55
2022-12-25T20:53:47.131Z,86.30
2022-12-25T20:56:16.438Z,85.78
2022-12-25T20:58:43.639Z,86.48
2022-12-25T21:01:12.904Z,87.25
2022-12-25T21:03:39.934Z,86.29
2022-12-25T21:06:07.080Z,85.24
2022-12-25T21:08:34.198Z,84.84
2022-12-25T21:11:01.664Z,83.23
2022-12-25T21:13:33.836Z,83.57
2022-12-25T21:16:00.704Z,84.29
2022-12-25T21:18:28.162Z,84.08
2022-12-25T21:20:57.384Z,82.92
2022-12-25T21:23:24.712Z,82.88
2022-12-25T21:25:51.146Z,83.49
2022-12-25T21:28:17.472Z,81.72
2022-12-25T21:30:44.248Z,82.58
2022-12-25T21:33:16.873Z,82.94
2022-12-25T21:35:43.723Z,82.90
2022-12-25T21:38:10.237Z,82.53
2022-12-25T21:40:37.645Z,83.99
2022-12-25T21:43:04.642Z,84.79
2022-12-25T21:45:31.198Z,85.60
2022-12-25T21:48:01.581Z,85.26
2022-12-25T21:50:29.315Z,85.24
2022-12-25T21:52:56.228Z,85.38
2022-12-25T21:55:22.600Z,82.71
2022-12-25T21:57:49.048Z,83.44
2022-12-25T22:00:15.490Z,83.84
2022-12-25T22:02:42.259Z,84.68
2022-12-25T22:05:08.839Z,84.55
2022-12-25T22:07:35.248Z,83.49
2022-12-25T22:10:01.599Z,82.72
2022-12-25T22:12:33.860Z,83.65
2022-12-25T22:15:01.330Z,82.60
2022-12-25T22:17:30.185Z,82.72
2022-12-25T22:19:56.763Z,83.77
2022-12-25T22:22:26.367Z,81.04
2022-12-25T22:24:56.333Z,80.33
2022-12-25T22:27:23.654Z,82.34
2022-12-25T22:29:50.429Z,82.15
2022-12-25T22:32:17.729Z,81.51
2022-12-25T22:34:44.058Z,80.10
2022-12-25T22:37:16.249Z,80.31
2022-12-25T22:39:43.672Z,79.29
2022-12-25T22:42:10.868Z,78.29
2022-12-25T22:44:37.480Z,79.55
2022-12-25T22:47:04.388Z,78.97
2022-12-25T22:49:30.744Z,80.00
2022-12-25T22:51:57.335Z,79.82
2022-12-25T22:54:24.591Z,79.87
2022-12-25T22:56:52.708Z,78.31
2022-12-25T22:59:21.794Z,78.06
2022-12-25T23:01:49.218Z,80.35
2022-12-25T23:04:16.559Z,80.25
2022-12-25T23:06:43.260Z,80.42
2022-12-25T23:09:18.868Z,81.37
2022-12-25T23:11:48.688Z,80.73
2022-12-25T23:14:15.096Z,80.87
2022-12-25T23:16:41.650Z,80.59
2022-12-25T23:19:08.747Z,79.14
2022-12-25T23:21:35.779Z,79.81
2022-12-25T23:24:02.653Z,81.88
2022-12-25T23:26:29.045Z,79.84
2022-12-25T23:28:55.367Z,79.98
2022-12-25T23:31:25.375Z,80.64
2022-12-25T23:33:51.806Z,80.06
2022-12-25T23:36:18.675Z,80.68
2022-12-25T23:38:45.000Z,82.22
2022-12-25T23:41:11.408Z,80.36
2022-12-25T23:43:37.786Z,79.37
2022-12-25T23:46:04.485Z,80.10
2022-12-25T23:48:30.965Z,81.25
2022-12-25T23:51:02.365Z,82.01
2022-12-25T23:53:28.698Z,83.54
2022-12-25T23:55:56.056Z,82.98
2022-12-25T23:58:22.609Z,83.22
